Time,TemperatureF,DewpointF,PressureIn,WindDirection,WindDirectionDegrees,WindSpeedMPH,WindSpeedGustMPH,Humidity,HourlyPrecipIn,Conditions,Clouds,dailyrainin,SoftwareType,DateUTC
2013-01-22 00:01:00,20.8,5.5,30.21,SE,135,0.0,1.0,51,0.00,,,0.00,meteohub,2013-01-22 08:01:00,
2013-01-22 00:06:00,20.7,6.3,30.21,SE,135,1.0,1.0,53,0.00,,,0.00,meteohub,2013-01-22 08:06:00,
2013-01-22 00:11:00,20.8,6.4,30.21,SE,135,1.0,1.0,53,0.00,,,0.00,meteohub,2013-01-22 08:11:00,
2013-01-22 00:16:00,20.8,6.4,30.21,SE,135,0.0,2.0,53,0.00,,,0.00,meteohub,2013-01-22 08:16:00,
2013-01-22 00:21:00,20.8,6.4,30.21,SE,135,0.0,2.0,53,0.00,,,0.00,meteohub,2013-01-22 08:21:00,
2013-01-22 00:27:00,20.7,7.0,30.21,SE,135,1.0,2.0,55,0.00,,,0.00,meteohub,2013-01-22 08:27:00,
2013-01-22 00:32:00,20.5,6.1,30.21,SE,135,2.0,2.0,53,0.00,,,0.00,meteohub,2013-01-22 08:32:00,
2013-01-22 00:37:00,20.3,5.5,30.20,SE,135,2.0,2.0,52,0.00,,,0.00,meteohub,2013-01-22 08:37:00,
2013-01-22 00:42:00,20.3,5.0,30.20,SE,135,2.0,2.0,51,0.00,,,0.00,meteohub,2013-01-22 08:42:00,
2013-01-22 00:47:00,20.3,4.6,30.21,SE,135,1.0,2.0,50,0.00,,,0.00,meteohub,2013-01-22 08:47:00,
2013-01-22 00:52:00,20.3,5.0,30.20,SE,135,0.0,2.0,51,0.00,,,0.00,meteohub,2013-01-22 08:52:00,
2013-01-22 00:56:00,20.1,4.8,30.21,SE,135,0.0,2.0,51,0.00,,,0.00,meteohub,2013-01-22 08:56:00,
2013-01-22 01:02:00,19.8,5.0,30.20,SE,135,1.0,1.0,52,0.00,,,0.00,meteohub,2013-01-22 09:02:00,
2013-01-22 01:07:00,19.6,5.2,30.21,SE,135,1.0,1.0,53,0.00,,,0.00,meteohub,2013-01-22 09:07:00,
2013-01-22 01:12:00,19.4,5.0,30.21,SE,135,1.0,1.0,53,0.00,,,0.00,meteohub,2013-01-22 09:12:00,
2013-01-22 01:17:00,19.4,4.6,30.21,SE,135,2.0,2.0,52,0.00,,,0.00,meteohub,2013-01-22 09:17:00,
2013-01-22 01:22:00,19.8,5.0,30.21,SE,135,0.0,2.0,52,0.00,,,0.00,meteohub,2013-01-22 09:22:00,
2013-01-22 01:27:00,20.1,6.1,30.21,SE,135,0.0,2.0,54,0.00,,,0.00,meteohub,2013-01-22 09:27:00,
2013-01-22 01:32:00,20.1,5.7,30.21,SE,135,1.0,2.0,53,0.00,,,0.00,meteohub,2013-01-22 09:32:00,
2013-01-22 01:37:00,19.8,5.4,30.21,SE,135,1.0,1.0,53,0.00,,,0.00,meteohub,2013-01-22 09:37:00,
2013-01-22 01:42:00,19.4,5.5,30.21,SE,135,0.0,1.0,54,0.00,,,0.00,meteohub,2013-01-22 09:42:00,
2013-01-22 01:47:00,19.4,5.9,30.21,SE,135,2.0,2.0,55,0.00,,,0.00,meteohub,2013-01-22 09:47:00,
2013-01-22 01:52:00,19.6,4.8,30.21,SE,135,2.0,2.0,52,0.00,,,0.00,meteohub,2013-01-22 09:52:00,
2013-01-22 01:57:00,19.9,4.6,30.21,SE,135,0.0,2.0,51,0.00,,,0.00,meteohub,2013-01-22 09:57:00,
2013-01-22 02:02:00,19.8,4.1,30.20,SE,135,1.0,2.0,50,0.00,,,0.00,meteohub,2013-01-22 10:02:00,
2013-01-22 02:07:00,19.9,4.3,30.20,SE,135,2.0,2.0,50,0.00,,,0.00,meteohub,2013-01-22 10:07:00,
2013-01-22 02:12:00,20.3,4.1,30.20,SE,135,0.0,2.0,49,0.00,,,0.00,meteohub,2013-01-22 10:12:00,
2013-01-22 02:17:00,20.3,4.1,30.20,SE,135,1.0,2.0,49,0.00,,,0.00,meteohub,2013-01-22 10:17:00,
2013-01-22 02:22:00,20.5,4.3,30.20,SE,135,2.0,2.0,49,0.00,,,0.00,meteohub,2013-01-22 10:22:00,
2013-01-22 02:27:00,20.1,3.6,30.19,SE,135,1.0,2.0,48,0.00,,,0.00,meteohub,2013-01-22 10:27:00,
2013-01-22 02:32:00,20.1,4.1,30.19,SE,135,1.0,2.0,49,0.00,,,0.00,meteohub,2013-01-22 10:32:00,
2013-01-22 02:37:00,20.7,4.5,30.19,SE,135,0.0,2.0,49,0.00,,,0.00,meteohub,2013-01-22 10:37:00,
2013-01-22 02:42:00,20.8,5.2,30.19,SE,135,1.0,1.0,50,0.00,,,0.00,meteohub,2013-01-22 10:42:00,
2013-01-22 02:47:00,20.8,4.3,30.20,SE,135,1.0,1.0,48,0.00,,,0.00,meteohub,2013-01-22 10:47:00,
2013-01-22 02:52:00,21.2,4.6,30.20,SE,135,0.0,2.0,48,0.00,,,0.00,meteohub,2013-01-22 10:52:00,
2013-01-22 02:57:00,21.2,4.1,30.20,SE,135,1.0,2.0,47,0.00,,,0.00,meteohub,2013-01-22 10:57:00,
2013-01-22 03:02:00,21.4,4.3,30.20,SE,135,0.0,1.0,47,0.00,,,0.00,meteohub,2013-01-22 11:02:00,
2013-01-22 03:07:00,21.4,4.3,30.19,SE,135,1.0,1.0,47,0.00,,,0.00,meteohub,2013-01-22 11:07:00,
2013-01-22 03:12:00,21.6,4.8,30.19,SE,135,1.0,1.0,48,0.00,,,0.00,meteohub,2013-01-22 11:12:00,
2013-01-22 03:17:00,21.6,4.8,30.19,SE,135,0.0,1.0,48,0.00,,,0.00,meteohub,2013-01-22 11:17:00,
2013-01-22 03:22:00,20.8,4.3,30.19,SE,135,0.0,1.0,48,0.00,,,0.00,meteohub,2013-01-22 11:22:00,
2013-01-22 03:27:00,19.8,4.1,30.19,SE,135,0.0,1.0,50,0.00,,,0.00,meteohub,2013-01-22 11:27:00,
2013-01-22 03:32:00,19.4,4.6,30.19,SE,135,0.0,1.0,52,0.00,,,0.00,meteohub,2013-01-22 11:32:00,
2013-01-22 03:37:00,19.0,4.6,30.19,SE,135,0.0,1.0,53,0.00,,,0.00,meteohub,2013-01-22 11:37:00,
2013-01-22 03:42:00,18.5,4.6,30.19,SE,135,0.0,1.0,54,0.00,,,0.00,meteohub,2013-01-22 11:42:00,
2013-01-22 03:47:00,18.5,4.3,30.18,SE,135,0.0,1.0,53,0.00,,,0.00,meteohub,2013-01-22 11:47:00,
2013-01-22 03:52:00,18.5,4.6,30.19,SE,135,1.0,1.0,54,0.00,,,0.00,meteohub,2013-01-22 11:52:00,
2013-01-22 03:57:00,18.7,5.5,30.19,SE,135,0.0,1.0,56,0.00,,,0.00,meteohub,2013-01-22 11:57:00,
2013-01-22 04:02:00,18.7,5.5,30.19,SE,135,0.0,1.0,56,0.00,,,0.00,meteohub,2013-01-22 12:02:00,
2013-01-22 04:07:00,18.9,5.4,30.19,SE,135,1.0,1.0,55,0.00,,,0.00,meteohub,2013-01-22 12:07:00,
2013-01-22 04:12:00,19.0,5.5,30.19,SE,135,0.0,1.0,55,0.00,,,0.00,meteohub,2013-01-22 12:12:00,
2013-01-22 04:17:00,19.4,5.9,30.19,SE,135,1.0,1.0,55,0.00,,,0.00,meteohub,2013-01-22 12:17:00,
2013-01-22 04:22:00,19.6,5.7,30.19,SE,135,1.0,1.0,54,0.00,,,0.00,meteohub,2013-01-22 12:22:00,
2013-01-22 04:28:00,19.8,5.0,30.19,SE,135,1.0,1.0,52,0.00,,,0.00,meteohub,2013-01-22 12:28:00,
2013-01-22 04:33:00,19.8,4.1,30.19,SE,135,1.0,1.0,50,0.00,,,0.00,meteohub,2013-01-22 12:33:00,
2013-01-22 04:38:00,20.1,4.5,30.19,SE,135,0.0,2.0,50,0.00,,,0.00,meteohub,2013-01-22 12:38:00,
2013-01-22 04:43:00,20.1,4.5,30.19,SE,135,0.0,2.0,50,0.00,,,0.00,meteohub,2013-01-22 12:43:00,
2013-01-22 04:48:00,19.6,3.6,30.19,SE,135,1.0,2.0,49,0.00,,,0.00,meteohub,2013-01-22 12:48:00,
2013-01-22 04:53:00,19.0,2.7,30.18,SE,135,3.0,3.0,48,0.00,,,0.00,meteohub,2013-01-22 12:53:00,
2013-01-22 04:58:00,19.2,3.6,30.19,SE,135,1.0,3.0,50,0.00,,,0.00,meteohub,2013-01-22 12:58:00,
2013-01-22 05:03:00,19.4,4.3,30.18,SE,135,1.0,4.0,51,0.00,,,0.00,meteohub,2013-01-22 13:03:00,
2013-01-22 05:08:00,19.8,5.0,30.19,SE,135,1.0,4.0,52,0.00,,,0.00,meteohub,2013-01-22 13:08:00,
2013-01-22 05:13:00,20.1,4.5,30.19,SE,135,1.0,1.0,50,0.00,,,0.00,meteohub,2013-01-22 13:13:00,
2013-01-22 05:18:00,20.1,4.1,30.18,SE,135,1.0,2.0,49,0.00,,,0.00,meteohub,2013-01-22 13:18:00,
2013-01-22 05:23:00,20.5,3.9,30.18,SE,135,1.0,2.0,48,0.00,,,0.00,meteohub,2013-01-22 13:23:00,
2013-01-22 05:28:00,20.7,4.1,30.19,SE,135,1.0,2.0,48,0.00,,,0.00,meteohub,2013-01-22 13:28:00,
2013-01-22 05:33:00,20.1,2.7,30.19,SE,135,2.0,2.0,46,0.00,,,0.00,meteohub,2013-01-22 13:33:00,
2013-01-22 05:38:00,19.8,2.8,30.19,SE,135,1.0,3.0,47,0.00,,,0.00,meteohub,2013-01-22 13:38:00,
2013-01-22 05:43:00,19.8,3.2,30.19,SE,135,0.0,3.0,48,0.00,,,0.00,meteohub,2013-01-22 13:43:00,
2013-01-22 05:48:00,19.4,3.4,30.19,SE,135,2.0,2.0,49,0.00,,,0.00,meteohub,2013-01-22 13:48:00,
2013-01-22 05:53:00,19.2,3.6,30.19,SE,135,1.0,2.0,50,0.00,,,0.00,meteohub,2013-01-22 13:53:00,
2013-01-22 05:58:00,19.2,4.1,30.19,SE,135,0.0,2.0,51,0.00,,,0.00,meteohub,2013-01-22 13:58:00,
2013-01-22 06:03:00,19.0,3.4,30.19,SE,135,0.0,2.0,50,0.00,,,0.00,meteohub,2013-01-22 14:03:00,
2013-01-22 06:08:00,18.7,3.2,30.19,SE,135,2.0,2.0,50,0.00,,,0.00,meteohub,2013-01-22 14:08:00,
2013-01-22 06:13:00,18.5,3.4,30.19,SE,135,1.0,2.0,51,0.00,,,0.00,meteohub,2013-01-22 14:13:00,
2013-01-22 06:18:00,18.0,3.4,30.19,SE,135,3.0,3.0,52,0.00,,,0.00,meteohub,2013-01-22 14:18:00,
2013-01-22 06:23:00,17.4,2.8,30.20,SE,135,0.0,2.0,52,0.00,,,0.00,meteohub,2013-01-22 14:23:00,
2013-01-22 06:28:00,17.1,2.5,30.19,SE,135,1.0,2.0,52,0.00,,,0.00,meteohub,2013-01-22 14:28:00,
2013-01-22 06:33:00,16.9,2.7,30.19,SE,135,2.0,3.0,53,0.00,,,0.00,meteohub,2013-01-22 14:33:00,
2013-01-22 06:38:00,16.7,2.5,30.19,SE,135,2.0,2.0,53,0.00,,,0.00,meteohub,2013-01-22 14:38:00,
2013-01-22 06:43:00,16.5,2.8,30.20,SE,135,2.0,2.0,54,0.00,,,0.00,meteohub,2013-01-22 14:43:00,
2013-01-22 06:48:00,16.3,2.7,30.20,SE,135,2.0,2.0,54,0.00,,,0.00,meteohub,2013-01-22 14:48:00,
2013-01-22 06:53:00,16.0,3.0,30.20,SE,135,2.0,2.0,56,0.00,,,0.00,meteohub,2013-01-22 14:53:00,
2013-01-22 06:59:00,16.2,2.1,30.20,SE,135,4.0,5.0,53,0.00,,,0.00,meteohub,2013-01-22 14:59:00,
2013-01-22 07:04:00,17.2,1.8,30.20,SE,135,5.0,8.0,50,0.00,,,0.00,meteohub,2013-01-22 15:04:00,
2013-01-22 07:09:00,17.8,2.3,30.20,South,180,2.0,8.0,50,0.00,,,0.00,meteohub,2013-01-22 15:09:00,
2013-01-22 07:14:00,18.1,3.6,30.20,South,180,2.0,6.0,52,0.00,,,0.00,meteohub,2013-01-22 15:14:00,
2013-01-22 07:19:00,18.1,3.6,30.20,SE,135,2.0,6.0,52,0.00,,,0.00,meteohub,2013-01-22 15:19:00,
2013-01-22 07:24:00,18.1,3.0,30.21,SE,135,0.0,3.0,51,0.00,,,0.00,meteohub,2013-01-22 15:24:00,
2013-01-22 07:29:00,19.6,4.5,30.20,SE,135,1.0,3.0,51,0.00,,,0.00,meteohub,2013-01-22 15:29:00,
2013-01-22 07:34:00,21.0,5.4,30.20,SE,135,0.0,3.0,50,0.00,,,0.00,meteohub,2013-01-22 15:34:00,
2013-01-22 07:42:00,23.2,5.5,30.20,SE,135,2.0,2.0,46,0.00,,,0.00,meteohub,2013-01-22 15:42:00,
2013-01-22 07:47:00,24.1,5.7,30.20,SE,135,1.0,2.0,45,0.00,,,0.00,meteohub,2013-01-22 15:47:00,
2013-01-22 07:52:00,25.0,6.6,30.20,SE,135,0.0,2.0,45,0.00,,,0.00,meteohub,2013-01-22 15:52:00,
2013-01-22 07:57:00,26.2,7.3,30.21,SE,135,0.0,2.0,44,0.00,,,0.00,meteohub,2013-01-22 15:57:00,
2013-01-22 08:02:00,26.8,6.3,30.20,SE,135,2.0,2.0,41,0.00,,,0.00,meteohub,2013-01-22 16:02:00,
2013-01-22 08:07:00,26.6,5.0,30.21,SE,135,2.0,3.0,39,0.00,,,0.00,meteohub,2013-01-22 16:07:00,
2013-01-22 08:12:00,27.3,6.8,30.21,SE,135,1.0,59.0,41,0.00,,,0.00,meteohub,2013-01-22 16:12:00,
2013-01-22 08:17:00,27.7,7.0,30.20,SE,135,1.0,59.0,41,0.00,,,0.00,meteohub,2013-01-22 16:17:00,
2013-01-22 08:22:00,28.2,7.5,30.21,SE,135,1.0,3.0,41,0.00,,,0.00,meteohub,2013-01-22 16:22:00,
2013-01-22 08:27:00,28.6,7.9,30.21,SE,135,0.0,2.0,41,0.00,,,0.00,meteohub,2013-01-22 16:27:00,
2013-01-22 08:32:00,29.7,8.8,30.21,SE,135,1.0,2.0,41,0.00,,,0.00,meteohub,2013-01-22 16:32:00,
2013-01-22 08:37:00,30.6,9.1,30.21,SE,135,3.0,3.0,40,0.00,,,0.00,meteohub,2013-01-22 16:37:00,
2013-01-22 08:42:00,31.1,9.0,30.21,SE,135,2.0,3.0,39,0.00,,,0.00,meteohub,2013-01-22 16:42:00,
2013-01-22 08:47:00,31.6,10.0,30.21,SE,135,1.0,4.0,40,0.00,,,0.00,meteohub,2013-01-22 16:47:00,
2013-01-22 08:52:00,32.2,11.1,30.21,SE,135,3.0,4.0,41,0.00,,,0.00,meteohub,2013-01-22 16:52:00,
2013-01-22 08:57:00,32.9,11.3,30.21,SE,135,1.0,3.0,40,0.00,,,0.00,meteohub,2013-01-22 16:57:00,
2013-01-22 09:03:00,33.1,11.3,30.21,SE,135,1.0,3.0,40,0.00,,,0.00,meteohub,2013-01-22 17:03:00,
2013-01-22 09:08:00,33.1,11.3,30.21,SE,135,1.0,3.0,40,0.00,,,0.00,meteohub,2013-01-22 17:08:00,
2013-01-22 09:13:00,33.3,11.5,30.22,SE,135,0.0,1.0,40,0.00,,,0.00,meteohub,2013-01-22 17:13:00,
2013-01-22 09:18:00,33.6,11.8,30.22,SE,135,0.0,1.0,40,0.00,,,0.00,meteohub,2013-01-22 17:18:00,
2013-01-22 09:23:00,34.2,12.9,30.22,SE,135,1.0,1.0,41,0.00,,,0.00,meteohub,2013-01-22 17:23:00,
2013-01-22 09:28:00,35.6,14.2,30.22,SE,135,2.0,2.0,41,0.00,,,0.00,meteohub,2013-01-22 17:28:00,
2013-01-22 09:33:00,37.8,15.1,30.22,SE,135,1.0,2.0,39,0.00,,,0.00,meteohub,2013-01-22 17:33:00,
2013-01-22 09:38:00,40.1,17.1,30.22,SE,135,2.0,2.0,39,0.00,,,0.00,meteohub,2013-01-22 17:38:00,
2013-01-22 09:43:00,41.7,17.4,30.23,SE,135,1.0,2.0,37,0.00,,,0.00,meteohub,2013-01-22 17:43:00,
2013-01-22 09:48:00,43.7,17.2,30.22,SE,135,0.0,2.0,34,0.00,,,0.00,meteohub,2013-01-22 17:48:00,
2013-01-22 09:53:00,45.7,18.1,30.22,SE,135,1.0,2.0,33,0.00,,,0.00,meteohub,2013-01-22 17:53:00,
2013-01-22 09:58:00,46.8,16.9,30.22,SE,135,0.0,2.0,30,0.00,,,0.00,meteohub,2013-01-22 17:58:00,
2013-01-22 10:03:00,47.7,15.3,30.22,SE,135,0.0,2.0,27,0.00,,,0.00,meteohub,2013-01-22 18:03:00,
2013-01-22 10:08:00,48.4,16.0,30.22,SE,135,1.0,2.0,27,0.00,,,0.00,meteohub,2013-01-22 18:08:00,
2013-01-22 10:13:00,48.2,14.0,30.22,SE,135,2.0,2.0,25,0.00,,,0.00,meteohub,2013-01-22 18:13:00,
2013-01-22 10:18:00,47.5,12.6,30.22,SE,135,1.0,2.0,24,0.00,,,0.00,meteohub,2013-01-22 18:18:00,
2013-01-22 10:23:00,47.5,12.6,30.23,SE,135,1.0,2.0,24,0.00,,,0.00,meteohub,2013-01-22 18:23:00,
2013-01-22 10:28:00,47.8,10.8,30.22,SE,135,1.0,2.0,22,0.00,,,0.00,meteohub,2013-01-22 18:28:00,
2013-01-22 10:33:00,48.7,10.6,30.22,SE,135,1.0,2.0,21,0.00,,,0.00,meteohub,2013-01-22 18:33:00,
2013-01-22 10:38:00,50.5,12.0,30.22,SE,135,1.0,2.0,21,0.00,,,0.00,meteohub,2013-01-22 18:38:00,
2013-01-22 10:43:00,51.6,11.8,30.22,SE,135,2.0,2.0,20,0.00,,,0.00,meteohub,2013-01-22 18:43:00,
2013-01-22 10:48:00,52.5,11.5,30.22,SE,135,2.0,2.0,19,0.00,,,0.00,meteohub,2013-01-22 18:48:00,
2013-01-22 10:53:00,53.2,10.8,30.23,SE,135,2.0,2.0,18,0.00,,,0.00,meteohub,2013-01-22 18:53:00,
2013-01-22 10:58:00,53.8,11.3,30.22,SE,135,2.0,2.0,18,0.00,,,0.00,meteohub,2013-01-22 18:58:00,
2013-01-22 11:03:00,54.1,11.5,30.22,SE,135,2.0,2.0,18,0.00,,,0.00,meteohub,2013-01-22 19:03:00,
2013-01-22 11:09:00,54.7,9.3,30.22,SE,135,3.0,3.0,16,0.00,,,0.00,meteohub,2013-01-22 19:09:00,
2013-01-22 11:14:00,55.2,11.1,30.21,SE,135,2.0,3.0,17,0.00,,,0.00,meteohub,2013-01-22 19:14:00,
2013-01-22 11:19:00,55.8,11.7,30.21,SE,135,2.0,3.0,17,0.00,,,0.00,meteohub,2013-01-22 19:19:00,
2013-01-22 11:24:00,56.1,11.8,30.21,SE,135,2.0,3.0,17,0.00,,,0.00,meteohub,2013-01-22 19:24:00,
2013-01-22 11:29:00,56.5,10.8,30.21,SE,135,2.0,3.0,16,0.00,,,0.00,meteohub,2013-01-22 19:29:00,
2013-01-22 11:34:00,56.7,12.4,30.21,SE,135,2.0,2.0,17,0.00,,,0.00,meteohub,2013-01-22 19:34:00,
2013-01-22 11:39:00,56.7,12.4,30.21,West,270,2.0,2.0,17,0.00,,,0.00,meteohub,2013-01-22 19:39:00,
2013-01-22 11:44:00,56.7,12.4,30.20,West,270,3.0,4.0,17,0.00,,,0.00,meteohub,2013-01-22 19:44:00,
2013-01-22 11:49:00,56.8,11.1,30.20,West,270,2.0,4.0,16,0.00,,,0.00,meteohub,2013-01-22 19:49:00,
2013-01-22 11:57:00,56.1,9.1,30.19,West,270,3.0,4.0,15,0.00,,,0.00,meteohub,2013-01-22 19:57:00,
2013-01-22 12:02:00,55.9,9.0,30.20,SW,225,2.0,4.0,15,0.00,,,0.00,meteohub,2013-01-22 20:02:00,
2013-01-22 12:07:00,56.1,10.6,30.19,SW,225,2.0,4.0,16,0.00,,,0.00,meteohub,2013-01-22 20:07:00,
2013-01-22 12:12:00,56.1,9.1,30.19,North,0,4.0,4.0,15,0.00,,,0.00,meteohub,2013-01-22 20:12:00,
2013-01-22 12:17:00,56.3,10.6,30.19,SW,225,1.0,4.0,16,0.00,,,0.00,meteohub,2013-01-22 20:17:00,
2013-01-22 12:22:00,56.7,10.9,30.19,West,270,3.0,4.0,16,0.00,,,0.00,meteohub,2013-01-22 20:22:00,
2013-01-22 12:27:00,56.5,9.3,30.19,West,270,3.0,4.0,15,0.00,,,0.00,meteohub,2013-01-22 20:27:00,
2013-01-22 12:32:00,57.0,11.3,30.19,West,270,2.0,4.0,16,0.00,,,0.00,meteohub,2013-01-22 20:32:00,
2013-01-22 12:37:00,58.1,14.7,30.19,SW,225,2.0,4.0,18,0.00,,,0.00,meteohub,2013-01-22 20:37:00,
2013-01-22 12:43:00,58.1,12.2,30.19,West,270,2.0,3.0,16,0.00,,,0.00,meteohub,2013-01-22 20:43:00,
2013-01-22 12:48:00,58.1,13.5,30.19,North,0,2.0,4.0,17,0.00,,,0.00,meteohub,2013-01-22 20:48:00,
2013-01-22 12:53:00,58.1,13.5,30.19,West,270,2.0,4.0,17,0.00,,,0.00,meteohub,2013-01-22 20:53:00,
2013-01-22 12:58:00,58.5,13.8,30.18,West,270,2.0,4.0,17,0.00,,,0.00,meteohub,2013-01-22 20:58:00,
2013-01-22 13:03:00,59.0,14.2,30.19,West,270,2.0,5.0,17,0.00,,,0.00,meteohub,2013-01-22 21:03:00,
2013-01-22 13:08:00,59.2,12.9,30.18,North,0,3.0,5.0,16,0.00,,,0.00,meteohub,2013-01-22 21:08:00,
2013-01-22 13:13:00,59.4,13.1,30.18,North,0,2.0,5.0,16,0.00,,,0.00,meteohub,2013-01-22 21:13:00,
2013-01-22 13:18:00,59.4,13.1,30.18,West,270,2.0,4.0,16,0.00,,,0.00,meteohub,2013-01-22 21:18:00,
2013-01-22 13:23:00,59.5,11.8,30.18,NE,45,3.0,4.0,15,0.00,,,0.00,meteohub,2013-01-22 21:23:00,
2013-01-22 13:28:00,59.0,8.2,30.18,NE,45,2.0,4.0,13,0.00,,,0.00,meteohub,2013-01-22 21:28:00,
2013-01-22 13:31:00,58.5,7.7,30.18,East,90,2.0,4.0,13,0.00,,,0.00,meteohub,2013-01-22 21:31:00,
2013-01-22 13:37:00,57.9,9.0,30.18,East,90,1.0,4.0,14,0.00,,,0.00,meteohub,2013-01-22 21:37:00,
2013-01-22 13:42:00,57.7,8.8,30.18,South,180,2.0,4.0,14,0.00,,,0.00,meteohub,2013-01-22 21:42:00,
2013-01-22 13:47:00,57.7,8.8,30.18,East,90,0.0,4.0,14,0.00,,,0.00,meteohub,2013-01-22 21:47:00,
2013-01-22 13:52:00,58.3,9.3,30.18,East,90,2.0,3.0,14,0.00,,,0.00,meteohub,2013-01-22 21:52:00,
2013-01-22 13:57:00,58.5,13.8,30.18,SSW,203,2.0,3.0,17,0.00,,,0.00,meteohub,2013-01-22 21:57:00,
2013-01-22 14:02:00,58.5,15.1,30.18,North,-999,-999.0,2.0,18,0.00,,,0.00,meteohub,2013-01-22 22:02:00,
2013-01-22 14:07:00,58.6,15.3,30.18,SW,225,3.0,3.0,18,0.00,,,0.00,meteohub,2013-01-22 22:07:00,
2013-01-22 14:12:00,57.2,15.3,30.19,West,270,2.0,6.0,19,0.00,,,0.00,meteohub,2013-01-22 22:12:00,
2013-01-22 14:17:00,56.7,13.6,30.18,North,0,2.0,6.0,18,0.00,,,0.00,meteohub,2013-01-22 22:17:00,
2013-01-22 14:22:00,56.5,14.7,30.18,North,0,2.0,6.0,19,0.00,,,0.00,meteohub,2013-01-22 22:22:00,
2013-01-22 14:27:00,56.7,14.9,30.18,North,0,2.0,2.0,19,0.00,,,0.00,meteohub,2013-01-22 22:27:00,
2013-01-22 14:32:00,56.3,15.8,30.18,SE,135,2.0,2.0,20,0.00,,,0.00,meteohub,2013-01-22 22:32:00,
2013-01-22 14:37:00,55.6,14.0,30.19,South,180,2.0,4.0,19,0.00,,,0.00,meteohub,2013-01-22 22:37:00,
2013-01-22 14:42:00,54.9,15.6,30.18,SE,135,2.0,4.0,21,0.00,,,0.00,meteohub,2013-01-22 22:42:00,
2013-01-22 14:47:00,54.1,15.1,30.19,East,90,2.0,4.0,21,0.00,,,0.00,meteohub,2013-01-22 22:47:00,
2013-01-22 14:52:00,53.4,14.4,30.19,NE,45,2.0,2.0,21,0.00,,,0.00,meteohub,2013-01-22 22:52:00,
2013-01-22 14:57:00,52.9,14.0,30.18,NE,45,3.0,3.0,21,0.00,,,0.00,meteohub,2013-01-22 22:57:00,
2013-01-22 15:02:00,52.3,14.5,30.18,South,180,0.0,3.0,22,0.00,,,0.00,meteohub,2013-01-22 23:02:00,
2013-01-22 15:07:00,52.0,14.4,30.18,South,180,1.0,4.0,22,0.00,,,0.00,meteohub,2013-01-22 23:07:00,
2013-01-22 15:12:00,51.8,14.2,30.19,South,180,1.0,4.0,22,0.00,,,0.00,meteohub,2013-01-22 23:12:00,
2013-01-22 15:17:00,51.6,14.0,30.18,South,180,2.0,3.0,22,0.00,,,0.00,meteohub,2013-01-22 23:17:00,
2013-01-22 15:22:00,51.4,13.8,30.18,South,180,0.0,3.0,22,0.00,,,0.00,meteohub,2013-01-22 23:22:00,
2013-01-22 15:27:00,51.4,13.8,30.19,South,180,1.0,2.0,22,0.00,,,0.00,meteohub,2013-01-22 23:27:00,
2013-01-22 15:33:00,51.4,13.8,30.18,SW,225,2.0,2.0,22,0.00,,,0.00,meteohub,2013-01-22 23:33:00,
2013-01-22 15:38:00,51.1,13.5,30.19,SW,225,2.0,3.0,22,0.00,,,0.00,meteohub,2013-01-22 23:38:00,
2013-01-22 15:43:00,51.1,14.5,30.19,South,180,1.0,3.0,23,0.00,,,0.00,meteohub,2013-01-22 23:43:00,
2013-01-22 15:48:00,50.7,13.3,30.19,South,180,0.0,2.0,22,0.00,,,0.00,meteohub,2013-01-22 23:48:00,
2013-01-22 15:53:00,50.5,14.2,30.19,SW,225,1.0,3.0,23,0.00,,,0.00,meteohub,2013-01-22 23:53:00,
2013-01-22 15:58:00,50.4,14.0,30.19,South,180,2.0,3.0,23,0.00,,,0.00,meteohub,2013-01-22 23:58:00,
2013-01-22 16:03:00,50.2,14.7,30.19,SW,225,2.0,3.0,24,0.00,,,0.00,meteohub,2013-01-23 00:03:00,
2013-01-22 16:08:00,49.8,14.5,30.19,South,180,4.0,4.0,24,0.00,,,0.00,meteohub,2013-01-23 00:08:00,
2013-01-22 16:13:00,49.3,14.0,30.19,South,180,2.0,4.0,24,0.00,,,0.00,meteohub,2013-01-23 00:13:00,
2013-01-22 16:18:00,48.7,13.5,30.19,South,180,2.0,4.0,24,0.00,,,0.00,meteohub,2013-01-23 00:18:00,
2013-01-22 16:23:00,48.2,14.0,30.19,South,180,0.0,4.0,25,0.00,,,0.00,meteohub,2013-01-23 00:23:00,
2013-01-22 16:28:00,47.8,12.7,30.19,SW,225,1.0,3.0,24,0.00,,,0.00,meteohub,2013-01-23 00:28:00,
2013-01-22 16:33:00,47.3,13.3,30.19,SW,225,1.0,3.0,25,0.00,,,0.00,meteohub,2013-01-23 00:33:00,
2013-01-22 16:38:00,46.6,12.6,30.19,SW,225,1.0,3.0,25,0.00,,,0.00,meteohub,2013-01-23 00:38:00,
2013-01-22 16:43:00,45.9,13.8,30.19,SW,225,0.0,2.0,27,0.00,,,0.00,meteohub,2013-01-23 00:43:00,
2013-01-22 16:48:00,45.1,14.0,30.19,SW,225,1.0,1.0,28,0.00,,,0.00,meteohub,2013-01-23 00:48:00,
2013-01-22 16:53:00,43.9,15.3,30.19,East,90,2.0,2.0,31,0.00,,,0.00,meteohub,2013-01-23 00:53:00,
2013-01-22 16:58:00,43.2,14.5,30.19,East,90,1.0,4.0,31,0.00,,,0.00,meteohub,2013-01-23 00:58:00,
2013-01-22 17:03:00,42.6,14.9,30.19,East,90,1.0,4.0,32,0.00,,,0.00,meteohub,2013-01-23 01:03:00,
2013-01-22 17:08:00,42.1,15.8,30.19,East,90,2.0,4.0,34,0.00,,,0.00,meteohub,2013-01-23 01:08:00,
2013-01-22 17:13:00,41.2,16.2,30.19,East,90,1.0,4.0,36,0.00,,,0.00,meteohub,2013-01-23 01:13:00,
2013-01-22 17:18:00,40.1,17.1,30.19,East,90,2.0,2.0,39,0.00,,,0.00,meteohub,2013-01-23 01:18:00,
2013-01-22 17:23:00,39.0,17.2,30.19,East,90,1.0,2.0,41,0.00,,,0.00,meteohub,2013-01-23 01:23:00,
2013-01-22 17:28:00,37.9,16.3,30.19,East,90,1.0,2.0,41,0.00,,,0.00,meteohub,2013-01-23 01:28:00,
2013-01-22 17:33:00,37.0,16.2,30.19,East,90,1.0,2.0,42,0.00,,,0.00,meteohub,2013-01-23 01:33:00,
2013-01-22 17:38:00,36.5,16.7,30.19,East,90,1.0,2.0,44,0.00,,,0.00,meteohub,2013-01-23 01:38:00,
2013-01-22 17:43:00,36.5,16.2,30.19,South,180,1.0,2.0,43,0.00,,,0.00,meteohub,2013-01-23 01:43:00,
2013-01-22 17:48:00,36.3,16.5,30.19,South,180,1.0,4.0,44,0.00,,,0.00,meteohub,2013-01-23 01:48:00,
2013-01-22 17:53:00,35.8,16.5,30.19,SW,225,0.0,4.0,45,0.00,,,0.00,meteohub,2013-01-23 01:53:00,
2013-01-22 17:58:00,35.1,15.8,30.19,SW,225,2.0,4.0,45,0.00,,,0.00,meteohub,2013-01-23 01:58:00,
2013-01-22 18:03:00,34.3,15.6,30.19,SW,225,1.0,2.0,46,0.00,,,0.00,meteohub,2013-01-23 02:03:00,
2013-01-22 18:08:00,33.8,16.7,30.20,SW,225,2.0,2.0,49,0.00,,,0.00,meteohub,2013-01-23 02:08:00,
2013-01-22 18:13:00,33.6,16.5,30.20,SW,225,2.0,2.0,49,0.00,,,0.00,meteohub,2013-01-23 02:13:00,
2013-01-22 18:18:00,33.4,15.8,30.20,SW,225,1.0,2.0,48,0.00,,,0.00,meteohub,2013-01-23 02:18:00,
2013-01-22 18:23:00,33.4,15.8,30.20,SW,225,2.0,2.0,48,0.00,,,0.00,meteohub,2013-01-23 02:23:00,
2013-01-22 18:28:00,33.4,15.8,30.19,SW,225,1.0,2.0,48,0.00,,,0.00,meteohub,2013-01-23 02:28:00,
2013-01-22 18:33:00,33.1,16.0,30.19,SW,225,2.0,2.0,49,0.00,,,0.00,meteohub,2013-01-23 02:33:00,
2013-01-22 18:38:00,32.9,16.3,30.20,SW,225,2.0,2.0,50,0.00,,,0.00,meteohub,2013-01-23 02:38:00,
2013-01-22 18:43:00,32.5,16.3,30.20,SW,225,1.0,2.0,51,0.00,,,0.00,meteohub,2013-01-23 02:43:00,
2013-01-22 18:49:00,32.4,16.7,30.21,SW,225,2.0,2.0,52,0.00,,,0.00,meteohub,2013-01-23 02:49:00,
2013-01-22 18:53:00,32.2,17.1,30.20,SW,225,2.0,2.0,53,0.00,,,0.00,meteohub,2013-01-23 02:53:00,
2013-01-22 18:58:00,32.0,16.9,30.20,SE,135,0.0,2.0,53,0.00,,,0.00,meteohub,2013-01-23 02:58:00,
2013-01-22 19:04:00,31.8,16.7,30.20,SE,135,2.0,2.0,53,0.00,,,0.00,meteohub,2013-01-23 03:04:00,
2013-01-22 19:09:00,31.8,16.2,30.20,SE,135,0.0,2.0,52,0.00,,,0.00,meteohub,2013-01-23 03:09:00,
2013-01-22 19:14:00,31.8,16.7,30.21,SE,135,1.0,2.0,53,0.00,,,0.00,meteohub,2013-01-23 03:14:00,
2013-01-22 19:19:00,31.8,17.1,30.20,SE,135,1.0,2.0,54,0.00,,,0.00,meteohub,2013-01-23 03:19:00,
2013-01-22 19:24:00,32.0,17.6,30.21,SE,135,0.0,2.0,55,0.00,,,0.00,meteohub,2013-01-23 03:24:00,
2013-01-22 19:29:00,31.8,17.4,30.21,SE,135,2.0,2.0,55,0.00,,,0.00,meteohub,2013-01-23 03:29:00,
2013-01-22 19:34:00,32.0,17.6,30.21,East,90,2.0,3.0,55,0.00,,,0.00,meteohub,2013-01-23 03:34:00,
2013-01-22 19:39:00,31.6,17.2,30.20,East,90,2.0,3.0,55,0.00,,,0.00,meteohub,2013-01-23 03:39:00,
2013-01-22 19:44:00,31.6,17.2,30.20,East,90,0.0,3.0,55,0.00,,,0.00,meteohub,2013-01-23 03:44:00,
2013-01-22 19:49:00,31.8,18.0,30.21,East,90,1.0,2.0,56,0.00,,,0.00,meteohub,2013-01-23 03:49:00,
2013-01-22 19:54:00,31.8,18.0,30.21,East,90,1.0,2.0,56,0.00,,,0.00,meteohub,2013-01-23 03:54:00,
2013-01-22 19:59:00,32.0,18.5,30.21,East,90,0.0,1.0,57,0.00,,,0.00,meteohub,2013-01-23 03:59:00,
2013-01-22 20:04:00,31.8,18.3,30.22,East,90,0.0,1.0,57,0.00,,,0.00,meteohub,2013-01-23 04:04:00,
2013-01-22 20:09:00,31.8,18.3,30.22,East,90,1.0,1.0,57,0.00,,,0.00,meteohub,2013-01-23 04:09:00,
2013-01-22 20:14:00,31.6,18.1,30.21,East,90,1.0,2.0,57,0.00,,,0.00,meteohub,2013-01-23 04:14:00,
2013-01-22 20:19:00,31.5,18.0,30.22,East,90,1.0,2.0,57,0.00,,,0.00,meteohub,2013-01-23 04:19:00,
2013-01-22 20:24:00,31.3,17.8,30.21,East,90,2.0,2.0,57,0.00,,,0.00,meteohub,2013-01-23 04:24:00,
2013-01-22 20:29:00,30.9,17.4,30.22,East,90,2.0,2.0,57,0.00,,,0.00,meteohub,2013-01-23 04:29:00,
2013-01-22 20:34:00,31.1,17.6,30.22,East,90,1.0,2.0,57,0.00,,,0.00,meteohub,2013-01-23 04:34:00,
2013-01-22 20:39:00,31.1,17.6,30.22,East,90,0.0,2.0,57,0.00,,,0.00,meteohub,2013-01-23 04:39:00,
2013-01-22 20:44:00,30.9,17.4,30.22,East,90,2.0,2.0,57,0.00,,,0.00,meteohub,2013-01-23 04:44:00,
2013-01-22 20:49:00,30.6,17.1,30.22,East,90,0.0,2.0,57,0.00,,,0.00,meteohub,2013-01-23 04:49:00,
2013-01-22 20:54:00,30.6,17.6,30.22,East,90,1.0,2.0,58,0.00,,,0.00,meteohub,2013-01-23 04:54:00,
2013-01-22 20:59:00,30.6,17.1,30.22,SE,135,4.0,4.0,57,0.00,,,0.00,meteohub,2013-01-23 04:59:00,
2013-01-22 21:00:00,30.6,17.1,30.22,SE,135,2.0,2.0,57,0.00,,,0.00,meteohub,2013-01-23 05:00:00,
2013-01-22 21:02:00,30.4,17.1,30.22,SE,135,1.0,4.0,57,0.00,,,0.00,meteohub,2013-01-23 05:02:00,
2013-01-22 21:07:00,30.4,17.1,30.22,SE,135,0.0,4.0,57,0.00,,,0.00,meteohub,2013-01-23 05:07:00,
2013-01-22 21:12:00,30.2,16.9,30.22,East,90,2.0,4.0,57,0.00,,,0.00,meteohub,2013-01-23 05:12:00,
2013-01-22 21:15:00,30.2,17.2,30.22,East,90,1.0,4.0,58,0.00,,,0.00,meteohub,2013-01-23 05:15:00,
2013-01-22 21:20:00,30.2,17.6,30.22,East,90,1.0,2.0,59,0.00,,,0.00,meteohub,2013-01-23 05:20:00,
2013-01-22 21:25:00,30.2,17.6,30.22,East,90,0.0,2.0,59,0.00,,,0.00,meteohub,2013-01-23 05:25:00,
2013-01-22 21:30:00,30.2,17.2,30.22,East,90,0.0,2.0,58,0.00,,,0.00,meteohub,2013-01-23 05:30:00,
2013-01-22 21:35:00,30.0,17.8,30.22,SW,225,1.0,2.0,60,0.00,,,0.00,meteohub,2013-01-23 05:35:00,
2013-01-22 21:40:00,29.7,17.1,30.22,SW,225,2.0,2.0,59,0.00,,,0.00,meteohub,2013-01-23 05:40:00,
2013-01-22 21:45:00,29.3,17.1,30.22,SW,225,2.0,2.0,60,0.00,,,0.00,meteohub,2013-01-23 05:45:00,
2013-01-22 21:50:00,29.3,17.1,30.22,SW,225,0.0,2.0,60,0.00,,,0.00,meteohub,2013-01-23 05:50:00,
2013-01-22 21:55:00,29.1,16.9,30.22,SE,135,2.0,2.0,60,0.00,,,0.00,meteohub,2013-01-23 05:55:00,
2013-01-22 22:00:00,29.1,16.5,30.23,East,90,0.0,3.0,59,0.00,,,0.00,meteohub,2013-01-23 06:00:00,
2013-01-22 22:05:00,29.1,16.9,30.23,South,180,1.0,3.0,60,0.00,,,0.00,meteohub,2013-01-23 06:05:00,
2013-01-22 22:10:00,28.8,17.1,30.22,South,180,3.0,3.0,61,0.00,,,0.00,meteohub,2013-01-23 06:10:00,
2013-01-22 22:15:00,28.6,17.2,30.23,North,0,2.0,3.0,62,0.00,,,0.00,meteohub,2013-01-23 06:15:00,
2013-01-22 22:20:00,28.4,17.1,30.22,SE,135,1.0,3.0,62,0.00,,,0.00,meteohub,2013-01-23 06:20:00,
2013-01-22 22:26:00,28.4,17.4,30.23,SE,135,2.0,3.0,63,0.00,,,0.00,meteohub,2013-01-23 06:26:00,
2013-01-22 22:31:00,28.4,17.1,30.23,SE,135,2.0,2.0,62,0.00,,,0.00,meteohub,2013-01-23 06:31:00,
2013-01-22 22:36:00,28.2,16.5,30.23,SE,135,0.0,2.0,61,0.00,,,0.00,meteohub,2013-01-23 06:36:00,
2013-01-22 22:41:00,28.2,16.5,30.23,SE,135,1.0,2.0,61,0.00,,,0.00,meteohub,2013-01-23 06:41:00,
2013-01-22 22:46:00,28.4,17.1,30.23,SE,135,0.0,2.0,62,0.00,,,0.00,meteohub,2013-01-23 06:46:00,
2013-01-22 22:51:00,28.6,17.2,30.23,SE,135,0.0,2.0,62,0.00,,,0.00,meteohub,2013-01-23 06:51:00,
2013-01-22 22:56:00,28.6,17.2,30.23,SE,135,1.0,2.0,62,0.00,,,0.00,meteohub,2013-01-23 06:56:00,
2013-01-22 23:01:00,28.8,17.4,30.23,SE,135,1.0,1.0,62,0.00,,,0.00,meteohub,2013-01-23 07:01:00,
2013-01-22 23:06:00,28.6,17.6,30.23,SE,135,0.0,1.0,63,0.00,,,0.00,meteohub,2013-01-23 07:06:00,
2013-01-22 23:11:00,28.6,17.2,30.22,SE,135,2.0,2.0,62,0.00,,,0.00,meteohub,2013-01-23 07:11:00,
2013-01-22 23:16:00,28.9,17.6,30.23,SE,135,2.0,2.0,62,0.00,,,0.00,meteohub,2013-01-23 07:16:00,
2013-01-22 23:21:00,29.3,17.6,30.23,South,180,0.0,2.0,61,0.00,,,0.00,meteohub,2013-01-23 07:21:00,
2013-01-22 23:26:00,29.5,17.8,30.23,South,180,1.0,2.0,61,0.00,,,0.00,meteohub,2013-01-23 07:26:00,
2013-01-22 23:32:00,29.8,17.6,30.23,SE,135,3.0,3.0,60,0.00,,,0.00,meteohub,2013-01-23 07:32:00,
2013-01-22 23:37:00,29.8,17.6,30.23,SE,135,1.0,3.0,60,0.00,,,0.00,meteohub,2013-01-23 07:37:00,
2013-01-22 23:42:00,30.0,18.1,30.23,South,180,1.0,3.0,61,0.00,,,0.00,meteohub,2013-01-23 07:42:00,
2013-01-22 23:47:00,30.0,17.8,30.22,South,180,1.0,3.0,60,0.00,,,0.00,meteohub,2013-01-23 07:47:00,
2013-01-22 23:52:00,30.0,18.1,30.23,South,180,1.0,2.0,61,0.00,,,0.00,meteohub,2013-01-23 07:52:00,
2013-01-22 23:57:00,30.2,18.0,30.22,East,90,1.0,2.0,60,0.00,,,0.00,meteohub,2013-01-23 07:57:00,